Time;durP1;ratioP1;P1;durP2;ratioP2;P2;SDS_P1;SDS_P2;PMS_P1;PMS_P2;Temp;Humidity;BMP_temperature;BMP_pressure;BME280_temperature;BME280_humidity;BME280_pressure;Samples;Min_cycle;Max_cycle;Signal;HPM_P1;HPM_P2
2023/01/20 00:01:54;;;;;;;;;;;0.30;85.30;;;;;;5007982;28;19916;-79
2023/01/20 00:04:20;;;;;;;;;;;0.30;85.30;;;;;;5003115;28;19902;-79
2023/01/20 00:06:45;;;;;;;;;;;0.30;85.30;;;;;;5010397;28;19913;-79
2023/01/20 00:09:13;;;;;;;;;;;0.40;85.00;;;;;;5020829;28;19909;-77
2023/01/20 00:11:38;;;;;;;;;;;0.40;84.70;;;;;;5022875;28;19921;-78
2023/01/20 00:14:04;;;;;;;;;;;0.40;84.60;;;;;;5020702;28;19913;-78
2023/01/20 00:16:30;;;;;;;;;;;0.40;84.60;;;;;;5017703;28;19926;-78
2023/01/20 00:18:56;;;;;;;;;;;0.40;84.80;;;;;;5021813;28;19914;-79
2023/01/20 00:21:22;;;;;;;;;;;0.40;84.80;;;;;;5038469;28;19974;-78
2023/01/20 00:23:48;;;;;;;;;;;0.40;84.60;;;;;;5037324;28;19901;-78
2023/01/20 00:26:15;;;;;;;;;;;0.40;84.40;;;;;;5037864;28;19977;-80
2023/01/20 00:28:40;;;;;;;;;;;0.40;84.20;;;;;;5038386;28;19902;-79
2023/01/20 00:31:09;;;;;;;;;;;0.40;84.10;;;;;;5021170;28;19912;-80
2023/01/20 00:33:34;;;;;;;;;;;0.40;84.00;;;;;;5026240;28;19920;-78
2023/01/20 00:36:00;;;;;;;;;;;0.50;83.90;;;;;;5037142;28;19937;-80
2023/01/20 00:38:25;;;;;;;;;;;0.50;83.70;;;;;;5037616;28;19980;-79
2023/01/20 00:40:54;;;;;;;;;;;0.40;83.30;;;;;;5026816;28;19965;-78
2023/01/20 00:43:20;;;;;;;;;;;0.40;83.10;;;;;;5023076;28;19917;-78
2023/01/20 00:45:45;;;;;;;;;;;0.50;82.90;;;;;;5022160;28;20367;-78
2023/01/20 00:48:11;;;;;;;;;;;0.50;82.50;;;;;;5023713;28;19897;-78
2023/01/20 00:50:36;;;;;;;;;;;0.50;82.10;;;;;;5027599;28;19925;-78
2023/01/20 00:53:02;;;;;;;;;;;0.50;81.90;;;;;;5018334;28;19910;-77
2023/01/20 00:55:27;;;;;;;;;;;0.50;81.60;;;;;;5015378;28;19909;-78
2023/01/20 00:57:53;;;;;;;;;;;0.50;81.50;;;;;;5014678;28;19922;-78
2023/01/20 01:00:19;;;;;;;;;;;0.50;81.50;;;;;;5015454;28;20325;-78
2023/01/20 01:02:45;;;;;;;;;;;0.40;81.80;;;;;;5020948;28;19909;-78
2023/01/20 01:05:10;;;;;;;;;;;0.40;82.30;;;;;;5025194;28;19976;-77
2023/01/20 01:07:36;;;;;;;;;;;0.40;82.60;;;;;;5026446;28;19909;-77
2023/01/20 01:10:01;;;;;;;;;;;0.40;82.70;;;;;;5024915;28;19909;-78
2023/01/20 01:12:27;;;;;;;;;;;0.30;83.00;;;;;;5025542;28;19917;-78
2023/01/20 01:14:52;;;;;;;;;;;0.40;83.40;;;;;;5025578;28;19965;-77
2023/01/20 01:17:18;;;;;;;;;;;0.40;83.40;;;;;;5025810;28;19922;-78
2023/01/20 01:19:43;;;;;;;;;;;0.40;83.60;;;;;;5004086;28;19914;-78
2023/01/20 01:22:09;;;;;;;;;;;0.40;83.80;;;;;;5017441;28;20004;-78
2023/01/20 01:24:34;;;;;;;;;;;0.40;83.80;;;;;;4997688;28;19914;-77
2023/01/20 01:27:00;;;;;;;;;;;0.40;84.00;;;;;;5015097;28;20319;-79
2023/01/20 01:29:25;;;;;;;;;;;0.40;83.80;;;;;;5017004;28;19918;-79
2023/01/20 01:31:51;;;;;;;;;;;0.30;83.70;;;;;;5014764;28;19914;-78
2023/01/20 01:34:16;;;;;;;;;;;0.30;83.80;;;;;;5014470;28;19917;-79
2023/01/20 01:36:42;;;;;;;;;;;0.30;84.00;;;;;;5015174;28;19923;-78
2023/01/20 01:39:07;;;;;;;;;;;0.40;84.30;;;;;;5017301;28;19918;-78
2023/01/20 01:41:33;;;;;;;;;;;0.30;84.20;;;;;;5027019;28;19910;-77
2023/01/20 01:44:07;;;;;;;;;;;0.30;84.20;;;;;;5024893;28;19917;-78
2023/01/20 01:46:32;;;;;;;;;;;0.30;84.30;;;;;;5039421;28;19917;-77
2023/01/20 01:49:00;;;;;;;;;;;0.20;84.40;;;;;;5004711;28;19914;-77
2023/01/20 01:51:27;;;;;;;;;;;0.30;84.70;;;;;;5016170;28;19898;-78
2023/01/20 01:53:59;;;;;;;;;;;0.20;84.90;;;;;;4996549;28;19916;-79
2023/01/20 01:56:26;;;;;;;;;;;0.20;85.20;;;;;;5015901;28;20369;-78
2023/01/20 01:58:54;;;;;;;;;;;0.10;85.30;;;;;;5015166;28;19925;-79
2023/01/20 02:01:20;;;;;;;;;;;0.10;85.50;;;;;;5008823;28;19925;-79
2023/01/20 02:03:51;;;;;;;;;;;0.00;85.60;;;;;;4996257;28;19918;-79
2023/01/20 02:06:17;;;;;;;;;;;-0.10;85.80;;;;;;4994466;28;19917;-79
2023/01/20 02:08:42;;;;;;;;;;;-0.10;86.20;;;;;;4994484;28;19953;-79
2023/01/20 02:11:08;;;;;;;;;;;-0.10;86.60;;;;;;4995173;28;20008;-78
2023/01/20 02:13:34;;;;;;;;;;;-0.10;86.90;;;;;;5003047;28;20003;-78
2023/01/20 02:16:00;;;;;;;;;;;-0.10;87.00;;;;;;5015464;28;19914;-78
2023/01/20 02:18:26;;;;;;;;;;;-0.10;87.10;;;;;;5017605;28;20391;-78
2023/01/20 02:21:08;;;;;;;;;;;-0.20;87.20;;;;;;5005886;28;20017;-78
2023/01/20 02:23:45;;;;;;;;;;;-0.20;87.30;;;;;;5028678;28;19909;-78
2023/01/20 02:26:32;;;;;;;;;;;-0.20;87.60;;;;;;5028023;28;19920;-78
2023/01/20 02:29:30;;;;;;;;;;;-0.30;87.70;;;;;;5024130;28;19910;-78
2023/01/20 02:31:58;;;;;;;;;;;-0.30;88.00;;;;;;4987834;28;19924;-77
2023/01/20 02:34:30;;;;;;;;;;;-0.40;88.30;;;;;;5017470;28;19914;-78
2023/01/20 02:36:59;;;;;;;;;;;-0.40;88.90;;;;;;5016569;28;19921;-78
2023/01/20 02:39:27;;;;;;;;;;;-0.40;89.20;;;;;;5013899;28;19909;-76
2023/01/20 02:42:00;;;;;;;;;;;-0.40;89.40;;;;;;5013785;28;19983;-79
2023/01/20 02:44:26;;;;;;;;;;;-0.40;90.00;;;;;;5014128;28;19922;-78
2023/01/20 02:46:57;;;;;;;;;;;-0.40;89.70;;;;;;5015914;28;19976;-77
2023/01/20 02:49:26;;;;;;;;;;;-0.30;89.80;;;;;;5021565;28;19996;-77
2023/01/20 02:52:03;;;;;;;;;;;-0.20;89.80;;;;;;5023930;28;19914;-77
2023/01/20 02:54:30;;;;;;;;;;;-0.10;89.70;;;;;;5018796;28;20322;-78
2023/01/20 02:56:57;;;;;;;;;;;-0.10;89.30;;;;;;5017211;28;20012;-78
2023/01/20 02:59:25;;;;;;;;;;;-0.10;89.20;;;;;;5015630;28;19909;-79
2023/01/20 03:01:56;;;;;;;;;;;0.00;89.30;;;;;;5010981;28;20286;-78
2023/01/20 03:04:24;;;;;;;;;;;0.00;89.10;;;;;;5016640;28;19913;-79
2023/01/20 03:06:51;;;;;;;;;;;0.00;89.00;;;;;;5020832;28;19977;-78
2023/01/20 03:09:20;;;;;;;;;;;0.00;89.40;;;;;;5016530;28;19921;-79
2023/01/20 03:11:50;;;;;;;;;;;0.00;88.70;;;;;;5017609;28;19949;-77
2023/01/20 03:14:15;;;;;;;;;;;0.00;88.70;;;;;;5017926;28;19909;-78
2023/01/20 03:16:41;;;;;;;;;;;0.10;88.70;;;;;;5021220;28;19951;-78
2023/01/20 03:19:07;;;;;;;;;;;0.00;88.60;;;;;;5017459;28;19964;-78
2023/01/20 03:21:33;;;;;;;;;;;0.00;88.30;;;;;;5017190;28;19921;-78
2023/01/20 03:24:00;;;;;;;;;;;0.00;88.30;;;;;;5021230;28;20082;-78
2023/01/20 03:26:25;;;;;;;;;;;0.00;88.30;;;;;;5002201;28;19921;-79
2023/01/20 03:28:52;;;;;;;;;;;0.00;88.20;;;;;;5002267;28;19913;-77
2023/01/20 03:31:20;;;;;;;;;;;0.00;88.20;;;;;;5020745;28;19922;-78
2023/01/20 03:33:47;;;;;;;;;;;0.00;88.30;;;;;;5019591;28;19960;-78
2023/01/20 03:36:13;;;;;;;;;;;0.10;88.30;;;;;;5017782;28;19991;-78
2023/01/20 03:38:38;;;;;;;;;;;0.10;88.20;;;;;;5021223;28;20000;-79
2023/01/20 03:41:09;;;;;;;;;;;0.10;88.10;;;;;;5020303;28;19947;-78
2023/01/20 03:43:43;;;;;;;;;;;0.20;88.00;;;;;;5020102;28;19977;-79
2023/01/20 03:46:21;;;;;;;;;;;0.20;87.80;;;;;;5021606;28;20276;-78
2023/01/20 03:48:52;;;;;;;;;;;0.30;87.60;;;;;;5021515;28;19926;-79
2023/01/20 03:51:18;;;;;;;;;;;0.30;87.20;;;;;;5001984;28;19913;-78
2023/01/20 03:53:47;;;;;;;;;;;0.30;86.80;;;;;;5021734;28;19909;-79
2023/01/20 03:56:21;;;;;;;;;;;0.30;86.20;;;;;;5022707;28;19925;-78
2023/01/20 03:58:49;;;;;;;;;;;0.30;85.70;;;;;;5019646;28;19909;-77
2023/01/20 04:01:16;;;;;;;;;;;0.30;84.80;;;;;;5022459;28;19925;-79
2023/01/20 04:03:43;;;;;;;;;;;0.30;85.10;;;;;;5019300;28;19913;-78
2023/01/20 04:06:10;;;;;;;;;;;0.30;85.50;;;;;;5018943;28;19909;-78
2023/01/20 04:08:38;;;;;;;;;;;0.30;85.60;;;;;;5019179;28;19909;-78
2023/01/20 04:11:05;;;;;;;;;;;0.40;85.30;;;;;;5020846;28;19916;-78
2023/01/20 04:13:30;;;;;;;;;;;0.30;84.90;;;;;;5002493;28;19918;-78
2023/01/20 04:15:57;;;;;;;;;;;0.20;84.70;;;;;;4998186;28;19898;-77
2023/01/20 04:18:23;;;;;;;;;;;0.20;85.40;;;;;;5015688;28;19910;-78
2023/01/20 04:21:08;;;;;;;;;;;0.20;86.10;;;;;;5016328;28;20306;-78
2023/01/20 04:24:09;;;;;;;;;;;0.10;86.70;;;;;;5017800;28;19952;-78
2023/01/20 04:26:35;;;;;;;;;;;0.10;87.50;;;;;;4937226;29;20017;-78
2023/01/20 04:29:07;;;;;;;;;;;0.10;88.90;;;;;;4999616;28;20371;-79
2023/01/20 04:31:36;;;;;;;;;;;0.10;88.80;;;;;;4999125;28;19926;-78
2023/01/20 04:34:02;;;;;;;;;;;0.10;89.20;;;;;;5018279;28;19909;-78
2023/01/20 04:36:27;;;;;;;;;;;0.10;89.70;;;;;;5015263;28;19921;-76
2023/01/20 04:38:53;;;;;;;;;;;0.10;90.10;;;;;;5014277;28;19959;-78
2023/01/20 04:41:18;;;;;;;;;;;0.10;90.30;;;;;;5015362;28;19960;-78
2023/01/20 04:43:44;;;;;;;;;;;0.10;90.40;;;;;;5014847;28;19933;-79
2023/01/20 04:46:11;;;;;;;;;;;0.10;90.60;;;;;;5014558;28;19909;-78
2023/01/20 04:48:37;;;;;;;;;;;0.00;90.80;;;;;;5015201;28;19948;-78
2023/01/20 04:51:03;;;;;;;;;;;0.00;91.00;;;;;;5017321;28;19963;-78
2023/01/20 04:53:28;;;;;;;;;;;0.00;91.40;;;;;;5014682;28;19913;-78
2023/01/20 04:55:54;;;;;;;;;;;-0.10;91.80;;;;;;5015388;28;20256;-78
2023/01/20 04:58:20;;;;;;;;;;;-0.10;92.20;;;;;;5016212;28;19964;-80
2023/01/20 05:00:45;;;;;;;;;;;-0.10;92.70;;;;;;5026406;28;19918;-78
2023/01/20 05:03:11;;;;;;;;;;;-0.10;93.00;;;;;;5009007;28;19909;-78
2023/01/20 05:05:36;;;;;;;;;;;-0.10;93.30;;;;;;5035426;28;19916;-80
2023/01/20 05:08:03;;;;;;;;;;;-0.10;93.60;;;;;;5037521;28;19973;-80
2023/01/20 05:10:30;;;;;;;;;;;-0.10;93.90;;;;;;5036250;28;19928;-80
2023/01/20 05:12:55;;;;;;;;;;;-0.10;94.30;;;;;;5037429;28;19941;-79
2023/01/20 05:15:21;;;;;;;;;;;-0.10;94.70;;;;;;5032575;28;19928;-79
2023/01/20 05:17:46;;;;;;;;;;;-0.20;94.90;;;;;;5018661;28;20370;-78
2023/01/20 05:20:13;;;;;;;;;;;-0.20;95.30;;;;;;5015175;28;19920;-79
2023/01/20 05:22:39;;;;;;;;;;;-0.20;95.70;;;;;;5016014;28;19916;-79
2023/01/20 05:25:04;;;;;;;;;;;-0.10;96.00;;;;;;5033462;28;20294;-79
2023/01/20 05:27:30;;;;;;;;;;;-0.10;96.40;;;;;;5017522;28;20242;-78
2023/01/20 05:29:55;;;;;;;;;;;-0.10;96.60;;;;;;5023295;28;19925;-78
2023/01/20 05:32:21;;;;;;;;;;;-0.10;96.80;;;;;;5020128;28;19919;-79
2023/01/20 05:34:46;;;;;;;;;;;-0.10;97.00;;;;;;5016190;28;20393;-79
2023/01/20 05:37:12;;;;;;;;;;;-0.10;97.00;;;;;;5016633;28;19968;-80
2023/01/20 05:39:37;;;;;;;;;;;-0.20;97.20;;;;;;4998762;28;19910;-79
2023/01/20 05:42:03;;;;;;;;;;;-0.20;97.50;;;;;;5015789;28;19928;-78
2023/01/20 05:44:28;;;;;;;;;;;-0.20;97.70;;;;;;5015703;28;20000;-79
2023/01/20 05:46:54;;;;;;;;;;;-0.20;97.80;;;;;;4998573;28;19924;-79
2023/01/20 05:49:19;;;;;;;;;;;-0.20;97.90;;;;;;5017818;28;19916;-79
2023/01/20 05:51:45;;;;;;;;;;;-0.30;97.80;;;;;;5015804;28;19936;-78
2023/01/20 05:54:10;;;;;;;;;;;-0.30;97.90;;;;;;5015979;28;19913;-79
2023/01/20 05:56:36;;;;;;;;;;;-0.30;98.00;;;;;;5015763;28;19964;-78
2023/01/20 05:59:01;;;;;;;;;;;-0.40;98.10;;;;;;5015801;28;19909;-78
2023/01/20 06:01:27;;;;;;;;;;;-0.40;98.30;;;;;;5018589;28;19948;-78
2023/01/20 06:03:52;;;;;;;;;;;-0.40;98.40;;;;;;5016709;28;19909;-79
2023/01/20 06:06:18;;;;;;;;;;;-0.40;98.70;;;;;;5016226;28;19921;-78
2023/01/20 06:08:44;;;;;;;;;;;-0.40;98.90;;;;;;5017006;28;19916;-78
2023/01/20 06:11:10;;;;;;;;;;;-0.40;99.20;;;;;;5013627;28;19913;-78
2023/01/20 06:13:38;;;;;;;;;;;-0.50;99.40;;;;;;5013974;28;19952;-78
2023/01/20 06:16:03;;;;;;;;;;;-0.50;99.40;;;;;;5016133;28;20330;-78
2023/01/20 06:18:29;;;;;;;;;;;-0.50;99.10;;;;;;5014408;28;19910;-78
2023/01/20 06:20:58;;;;;;;;;;;-0.50;98.30;;;;;;5014292;28;19910;-78
2023/01/20 06:23:24;;;;;;;;;;;-0.60;98.30;;;;;;5000052;28;19921;-78
2023/01/20 06:25:56;;;;;;;;;;;-0.60;98.50;;;;;;5018272;28;19910;-78
2023/01/20 06:28:22;;;;;;;;;;;-0.60;98.70;;;;;;5017376;28;19914;-78
2023/01/20 06:30:47;;;;;;;;;;;-0.70;98.30;;;;;;5015808;28;20378;-78
2023/01/20 06:33:13;;;;;;;;;;;-0.70;98.00;;;;;;5005798;28;20405;-78
2023/01/20 06:35:38;;;;;;;;;;;-0.70;97.50;;;;;;5019712;28;19933;-78
2023/01/20 06:38:04;;;;;;;;;;;-0.70;97.60;;;;;;5020383;28;19918;-78
2023/01/20 06:40:29;;;;;;;;;;;-0.70;97.60;;;;;;5019823;28;19909;-78
2023/01/20 06:42:56;;;;;;;;;;;-0.70;97.30;;;;;;5016777;28;19949;-77
2023/01/20 06:45:23;;;;;;;;;;;-0.70;97.30;;;;;;5016702;28;19969;-77
2023/01/20 06:47:48;;;;;;;;;;;-0.70;97.30;;;;;;5016536;28;20278;-79
2023/01/20 06:50:14;;;;;;;;;;;-0.70;97.40;;;;;;5024215;28;19914;-80
2023/01/20 06:52:40;;;;;;;;;;;-0.70;97.30;;;;;;5025172;28;20286;-79
2023/01/20 06:55:05;;;;;;;;;;;-0.70;97.40;;;;;;5027531;28;20259;-79
2023/01/20 06:57:31;;;;;;;;;;;-0.70;97.70;;;;;;5024509;28;19933;-79
2023/01/20 06:59:58;;;;;;;;;;;-0.70;97.90;;;;;;5004130;28;19920;-79
2023/01/20 07:02:23;;;;;;;;;;;-0.70;98.10;;;;;;5021743;28;19936;-79
2023/01/20 07:04:50;;;;;;;;;;;-0.60;98.00;;;;;;5020974;28;19913;-78
2023/01/20 07:07:16;;;;;;;;;;;-0.70;97.90;;;;;;5012335;28;20425;-79
2023/01/20 07:09:41;;;;;;;;;;;-0.60;98.10;;;;;;5001269;28;19914;-78
2023/01/20 07:12:07;;;;;;;;;;;-0.60;97.80;;;;;;5000493;28;19918;-79
2023/01/20 07:14:32;;;;;;;;;;;-0.60;97.80;;;;;;5021471;28;19909;-80
2023/01/20 07:16:58;;;;;;;;;;;-0.60;97.60;;;;;;5020343;28;19997;-79
2023/01/20 07:19:23;;;;;;;;;;;-0.60;97.90;;;;;;5030164;28;19921;-79
2023/01/20 07:21:49;;;;;;;;;;;-0.50;98.00;;;;;;5029878;28;19940;-79
2023/01/20 07:24:14;;;;;;;;;;;-0.50;98.10;;;;;;5025534;28;19910;-78
2023/01/20 07:26:40;;;;;;;;;;;-0.50;98.20;;;;;;5026676;28;19910;-80
2023/01/20 07:29:05;;;;;;;;;;;-0.50;98.10;;;;;;5021312;28;19913;-79
2023/01/20 07:31:33;;;;;;;;;;;-0.50;98.10;;;;;;5021839;28;20351;-79
2023/01/20 07:33:58;;;;;;;;;;;-0.40;98.20;;;;;;5021863;28;19920;-78
2023/01/20 07:36:24;;;;;;;;;;;-0.40;98.10;;;;;;5020532;28;19964;-78
2023/01/20 07:38:50;;;;;;;;;;;-0.40;98.10;;;;;;5022516;28;19910;-79
2023/01/20 07:41:18;;;;;;;;;;;-0.40;98.30;;;;;;5021634;28;20290;-80
2023/01/20 07:43:44;;;;;;;;;;;-0.40;98.30;;;;;;5027481;28;19922;-79
2023/01/20 07:46:10;;;;;;;;;;;-0.30;98.30;;;;;;5018342;28;19921;-79
2023/01/20 07:48:36;;;;;;;;;;;-0.30;98.00;;;;;;5019159;28;19906;-80
2023/01/20 07:51:04;;;;;;;;;;;-0.20;98.00;;;;;;5036156;28;19909;-79
2023/01/20 07:53:30;;;;;;;;;;;-0.20;98.00;;;;;;5019473;28;19917;-78
2023/01/20 07:56:02;;;;;;;;;;;-0.10;98.20;;;;;;5033714;28;19920;-78
2023/01/20 07:58:28;;;;;;;;;;;-0.10;98.20;;;;;;5052044;28;19963;-77
2023/01/20 08:00:53;;;;;;;;;;;0.00;98.30;;;;;;5032834;28;19916;-78
2023/01/20 08:03:19;;;;;;;;;;;0.10;97.90;;;;;;5033196;28;19914;-78
2023/01/20 08:05:44;;;;;;;;;;;0.20;97.60;;;;;;5021293;28;19909;-78
2023/01/20 08:08:10;;;;;;;;;;;0.20;97.20;;;;;;5024421;28;19952;-79
2023/01/20 08:10:36;;;;;;;;;;;0.20;97.10;;;;;;5020592;28;19916;-78
2023/01/20 08:13:01;;;;;;;;;;;0.30;96.80;;;;;;5024308;28;19909;-79
2023/01/20 08:15:28;;;;;;;;;;;0.30;96.70;;;;;;5021710;28;20011;-79
2023/01/20 08:17:54;;;;;;;;;;;0.30;96.80;;;;;;5023081;28;19922;-77
2023/01/20 08:20:19;;;;;;;;;;;0.40;96.80;;;;;;5017343;28;19937;-77
2023/01/20 08:22:45;;;;;;;;;;;0.40;96.70;;;;;;5006733;28;19910;-78
2023/01/20 08:25:10;;;;;;;;;;;0.40;96.40;;;;;;4999292;28;19932;-78
2023/01/20 08:27:36;;;;;;;;;;;0.40;96.30;;;;;;4998848;28;19910;-79
2023/01/20 08:30:01;;;;;;;;;;;0.40;96.40;;;;;;5015546;28;19922;-79
2023/01/20 08:32:28;;;;;;;;;;;0.50;96.10;;;;;;5018745;28;20004;-79
2023/01/20 08:34:53;;;;;;;;;;;0.50;96.00;;;;;;5023475;28;19926;-79
2023/01/20 08:37:21;;;;;;;;;;;0.60;96.10;;;;;;5010844;28;20464;-78
2023/01/20 08:39:46;;;;;;;;;;;0.70;95.60;;;;;;5008262;28;19944;-79
2023/01/20 08:42:12;;;;;;;;;;;0.70;95.40;;;;;;5029784;28;19965;-78
2023/01/20 08:44:38;;;;;;;;;;;0.70;95.10;;;;;;5031113;28;19918;-80
2023/01/20 08:47:03;;;;;;;;;;;0.70;95.20;;;;;;5023028;28;20138;-78
2023/01/20 08:49:29;;;;;;;;;;;0.80;95.10;;;;;;5030941;28;19928;-80
2023/01/20 08:51:55;;;;;;;;;;;0.80;94.90;;;;;;5019567;28;19977;-79
2023/01/20 08:54:21;;;;;;;;;;;0.80;94.90;;;;;;5033024;28;19933;-80
2023/01/20 08:56:50;;;;;;;;;;;0.80;95.00;;;;;;5027626;28;19921;-80
2023/01/20 08:59:16;;;;;;;;;;;0.80;95.10;;;;;;5022025;28;19992;-80
2023/01/20 09:01:42;;;;;;;;;;;0.80;95.10;;;;;;5003577;28;19936;-81
2023/01/20 09:04:08;;;;;;;;;;;0.80;95.00;;;;;;5020556;28;19957;-81
2023/01/20 09:06:44;;;;;;;;;;;0.80;95.10;;;;;;5019877;28;19909;-80
2023/01/20 09:09:10;;;;;;;;;;;0.80;95.10;;;;;;5004626;28;19979;-80
2023/01/20 09:11:37;;;;;;;;;;;0.90;94.80;;;;;;5024315;28;19918;-81
2023/01/20 09:14:02;;;;;;;;;;;0.90;94.80;;;;;;5023712;28;19983;-81
2023/01/20 09:16:28;;;;;;;;;;;1.00;94.80;;;;;;5020042;28;19918;-81
2023/01/20 09:18:53;;;;;;;;;;;1.10;94.70;;;;;;5019472;28;19914;-80
2023/01/20 09:21:19;;;;;;;;;;;1.10;94.30;;;;;;5024462;28;20130;-80
2023/01/20 09:23:46;;;;;;;;;;;1.10;94.00;;;;;;5021169;28;19917;-80
2023/01/20 09:26:12;;;;;;;;;;;1.20;94.20;;;;;;5002191;28;19918;-80
2023/01/20 09:28:38;;;;;;;;;;;1.20;94.20;;;;;;5024264;28;19937;-81
2023/01/20 09:31:05;;;;;;;;;;;1.20;93.90;;;;;;5020397;28;19914;-80
2023/01/20 09:33:31;;;;;;;;;;;1.30;93.70;;;;;;5019047;28;19913;-81
2023/01/20 09:35:57;;;;;;;;;;;1.30;93.90;;;;;;5021168;28;19977;-80
2023/01/20 09:44:08;;;;;;;;;;;1.70;93.40;;;;;;5021023;28;20012;-80
2023/01/20 09:46:35;;;;;;;;;;;1.70;92.80;;;;;;5020371;28;19929;-80
2023/01/20 09:54:43;;;;;;;;;;;1.80;92.80;;;;;;5019374;28;20064;-79
2023/01/20 09:57:09;;;;;;;;;;;1.90;92.20;;;;;;5024383;28;20258;-80
2023/01/20 10:00:03;;;;;;;;;;;1.90;91.80;;;;;;5024143;28;19916;-80
2023/01/20 10:02:32;;;;;;;;;;;1.90;91.90;;;;;;5010170;28;19909;-80
2023/01/20 10:05:00;;;;;;;;;;;1.90;91.30;;;;;;5023330;28;19917;-80
2023/01/20 10:07:26;;;;;;;;;;;1.80;91.50;;;;;;5008118;28;19914;-78
2023/01/20 10:09:55;;;;;;;;;;;1.70;91.40;;;;;;5023069;28;19976;-81
2023/01/20 10:12:26;;;;;;;;;;;1.60;92.10;;;;;;5022268;28;19917;-81
2023/01/20 10:15:07;;;;;;;;;;;1.70;91.80;;;;;;5023618;28;19921;-80
2023/01/20 10:17:35;;;;;;;;;;;1.70;92.20;;;;;;5005503;28;19913;-79
2023/01/20 10:20:04;;;;;;;;;;;1.80;91.70;;;;;;5022816;28;20016;-80
2023/01/20 10:22:36;;;;;;;;;;;1.80;91.40;;;;;;5023436;28;19909;-80
2023/01/20 10:25:20;;;;;;;;;;;1.80;91.50;;;;;;5025637;28;20232;-80
2023/01/20 10:27:56;;;;;;;;;;;1.80;91.40;;;;;;5023159;28;19909;-79
2023/01/20 10:30:24;;;;;;;;;;;1.80;91.30;;;;;;5023022;28;20243;-80
2023/01/20 10:32:53;;;;;;;;;;;1.90;91.50;;;;;;5022525;28;20334;-81
2023/01/20 10:35:19;;;;;;;;;;;2.00;91.60;;;;;;5014881;28;19988;-80
2023/01/20 10:37:45;;;;;;;;;;;2.10;91.40;;;;;;5022670;28;19928;-79
2023/01/20 10:40:22;;;;;;;;;;;2.30;90.90;;;;;;5022591;28;19909;-79
2023/01/20 10:42:52;;;;;;;;;;;2.30;89.80;;;;;;5023883;28;20016;-80
2023/01/20 10:45:27;;;;;;;;;;;2.20;89.20;;;;;;5016280;28;20282;-79
2023/01/20 10:48:06;;;;;;;;;;;2.20;89.80;;;;;;5021144;28;19977;-80
2023/01/20 10:50:31;;;;;;;;;;;2.30;90.10;;;;;;5002921;28;20325;-81
2023/01/20 10:53:14;;;;;;;;;;;2.30;89.60;;;;;;5020892;28;19914;-81
2023/01/20 10:55:42;;;;;;;;;;;2.40;90.20;;;;;;5021194;28;19968;-80
2023/01/20 10:58:11;;;;;;;;;;;2.50;88.70;;;;;;5005560;28;19921;-80
2023/01/20 11:00:38;;;;;;;;;;;2.50;88.10;;;;;;5021291;28;20206;-80
2023/01/20 11:03:05;;;;;;;;;;;2.40;88.90;;;;;;5004390;28;20358;-81
2023/01/20 11:05:33;;;;;;;;;;;2.50;88.30;;;;;;5011952;28;19913;-81
2023/01/20 11:07:59;;;;;;;;;;;2.50;87.40;;;;;;5032321;28;20009;-79
2023/01/20 11:10:26;;;;;;;;;;;2.50;87.40;;;;;;4998781;28;19914;-80
2023/01/20 11:12:59;;;;;;;;;;;2.50;89.00;;;;;;5022367;28;19913;-80
2023/01/20 11:15:51;;;;;;;;;;;2.50;89.90;;;;;;5004997;28;20012;-81
2023/01/20 11:18:16;;;;;;;;;;;2.50;88.90;;;;;;4995912;28;20003;-80
2023/01/20 11:20:42;;;;;;;;;;;2.40;90.40;;;;;;5003999;28;20381;-80
2023/01/20 11:23:17;;;;;;;;;;;2.40;91.10;;;;;;5021583;28;19964;-80
2023/01/20 11:25:51;;;;;;;;;;;2.40;90.90;;;;;;5023087;28;19980;-80
2023/01/20 11:28:18;;;;;;;;;;;2.40;91.20;;;;;;5022886;28;19918;-80
2023/01/20 11:30:49;;;;;;;;;;;2.40;91.40;;;;;;5023056;28;19995;-80
2023/01/20 11:33:19;;;;;;;;;;;2.40;90.70;;;;;;5019085;28;19914;-80
2023/01/20 11:35:58;;;;;;;;;;;2.40;91.30;;;;;;5021354;28;20079;-80
2023/01/20 11:38:25;;;;;;;;;;;2.40;91.50;;;;;;5022547;28;20158;-80
2023/01/20 11:40:52;;;;;;;;;;;2.30;90.70;;;;;;5021544;28;19971;-80
2023/01/20 11:43:33;;;;;;;;;;;2.20;91.40;;;;;;5021125;28;19961;-81
2023/01/20 11:46:18;;;;;;;;;;;2.20;91.60;;;;;;5021997;28;19929;-80
2023/01/20 11:48:44;;;;;;;;;;;2.30;90.90;;;;;;5006362;28;19913;-80
2023/01/20 11:51:25;;;;;;;;;;;2.30;90.90;;;;;;5019264;28;20022;-80
2023/01/20 11:54:13;;;;;;;;;;;2.40;91.30;;;;;;5020726;28;19914;-79
2023/01/20 11:56:43;;;;;;;;;;;2.40;91.40;;;;;;4994933;28;19913;-80
2023/01/20 11:59:23;;;;;;;;;;;2.40;91.10;;;;;;5020851;28;19936;-79
2023/01/20 12:01:49;;;;;;;;;;;2.40;91.00;;;;;;5000659;28;19916;-79
2023/01/20 12:04:17;;;;;;;;;;;2.50;90.50;;;;;;5022029;28;20298;-80
2023/01/20 12:06:48;;;;;;;;;;;2.40;90.60;;;;;;5003151;28;20051;-81
2023/01/20 12:09:15;;;;;;;;;;;2.50;90.70;;;;;;5020861;28;20389;-80
2023/01/20 12:11:56;;;;;;;;;;;2.60;90.70;;;;;;5022500;28;19913;-80
2023/01/20 12:14:24;;;;;;;;;;;2.60;90.90;;;;;;5022590;28;19913;-80
2023/01/20 12:16:57;;;;;;;;;;;2.80;91.30;;;;;;5023490;28;19948;-79
2023/01/20 12:19:28;;;;;;;;;;;2.80;90.90;;;;;;5026400;28;19934;-80
2023/01/20 12:21:55;;;;;;;;;;;2.80;90.80;;;;;;5027218;28;19928;-80
2023/01/20 12:25:06;;;;;;;;;;;2.70;91.00;;;;;;5015040;28;19916;-80
2023/01/20 12:27:19;;;;;;;;;;;2.80;90.90;;;;;;5036123;28;19929;-79
2023/01/20 12:29:49;;;;;;;;;;;2.70;90.40;;;;;;5017434;28;19902;-79
2023/01/20 12:32:15;;;;;;;;;;;2.80;91.10;;;;;;5033291;28;19905;-80
2023/01/20 12:34:40;;;;;;;;;;;2.80;91.20;;;;;;5035837;28;19925;-79
2023/01/20 12:37:15;;;;;;;;;;;2.80;91.10;;;;;;5033592;28;19968;-77
2023/01/20 12:40:00;;;;;;;;;;;2.70;91.50;;;;;;5036034;28;19948;-78
2023/01/20 12:42:46;;;;;;;;;;;2.60;92.00;;;;;;5008080;28;19909;-78
2023/01/20 12:45:24;;;;;;;;;;;2.60;92.80;;;;;;4983746;28;19979;-79
2023/01/20 12:48:02;;;;;;;;;;;2.70;93.50;;;;;;5021134;28;19909;-79
2023/01/20 12:50:34;;;;;;;;;;;2.70;92.70;;;;;;5022612;28;19921;-81
2023/01/20 12:53:12;;;;;;;;;;;2.70;92.80;;;;;;5023755;28;19917;-79
2023/01/20 12:55:54;;;;;;;;;;;2.60;93.00;;;;;;5025281;28;20349;-80
2023/01/20 12:58:20;;;;;;;;;;;2.70;93.30;;;;;;5023548;28;19972;-78
2023/01/20 13:00:54;;;;;;;;;;;2.60;92.90;;;;;;5022537;28;20143;-79
2023/01/20 13:03:19;;;;;;;;;;;2.40;93.20;;;;;;5027602;28;19997;-79
2023/01/20 13:06:00;;;;;;;;;;;2.30;93.50;;;;;;5029491;28;19913;-79
2023/01/20 13:08:28;;;;;;;;;;;2.10;93.80;;;;;;5025527;28;20533;-78
2023/01/20 13:10:54;;;;;;;;;;;1.80;94.30;;;;;;5023420;28;19921;-78
2023/01/20 13:13:44;;;;;;;;;;;1.70;94.20;;;;;;5025344;28;19914;-79
2023/01/20 13:16:14;;;;;;;;;;;1.60;94.60;;;;;;5023144;28;19909;-79
2023/01/20 13:18:46;;;;;;;;;;;1.60;95.40;;;;;;5030656;28;19913;-80
2023/01/20 13:21:15;;;;;;;;;;;1.60;95.60;;;;;;5031994;28;19959;-79
2023/01/20 13:23:41;;;;;;;;;;;1.60;96.10;;;;;;5027934;28;19927;-79
2023/01/20 13:26:07;;;;;;;;;;;1.70;96.20;;;;;;5024630;28;19989;-79
2023/01/20 13:28:33;;;;;;;;;;;1.70;96.10;;;;;;5025080;28;19937;-80
2023/01/20 13:30:59;;;;;;;;;;;1.60;96.00;;;;;;5022874;28;20013;-80
2023/01/20 13:33:35;;;;;;;;;;;1.50;96.30;;;;;;5027055;28;20305;-80
2023/01/20 13:36:12;;;;;;;;;;;1.40;96.70;;;;;;5025187;28;20009;-80
2023/01/20 13:38:38;;;;;;;;;;;1.30;97.00;;;;;;5027619;28;19913;-80
2023/01/20 13:41:04;;;;;;;;;;;1.30;97.50;;;;;;5027649;28;20282;-80
2023/01/20 13:43:30;;;;;;;;;;;1.30;97.70;;;;;;5008047;28;19933;-80
2023/01/20 13:46:01;;;;;;;;;;;1.20;97.90;;;;;;5028105;28;19997;-79
2023/01/20 13:48:27;;;;;;;;;;;1.20;98.00;;;;;;5032786;28;19922;-79
2023/01/20 13:50:53;;;;;;;;;;;1.20;98.50;;;;;;5021106;28;19982;-80
2023/01/20 13:53:18;;;;;;;;;;;1.10;98.10;;;;;;5017575;28;19914;-80
2023/01/20 13:55:44;;;;;;;;;;;1.00;98.20;;;;;;5018987;28;19910;-80
2023/01/20 13:58:13;;;;;;;;;;;1.00;98.60;;;;;;5020561;28;20358;-79
2023/01/20 14:00:39;;;;;;;;;;;1.00;99.10;;;;;;5022342;28;19913;-79
2023/01/20 14:03:31;;;;;;;;;;;0.90;99.20;;;;;;5024736;28;20079;-79
2023/01/20 14:06:01;;;;;;;;;;;1.00;99.70;;;;;;5011349;28;20287;-79
2023/01/20 14:08:30;;;;;;;;;;;1.00;99.90;;;;;;5018296;28;19938;-79
2023/01/20 14:11:10;;;;;;;;;;;1.10;99.90;;;;;;5018512;28;19913;-80
2023/01/20 14:13:35;;;;;;;;;;;1.00;99.80;;;;;;5019745;28;19910;-80
2023/01/20 14:16:01;;;;;;;;;;;1.00;99.80;;;;;;5019571;28;19925;-79
2023/01/20 14:18:26;;;;;;;;;;;1.00;99.40;;;;;;5000963;28;19969;-78
2023/01/20 14:20:58;;;;;;;;;;;1.00;98.80;;;;;;5020844;28;19914;-78
2023/01/20 14:23:25;;;;;;;;;;;0.90;98.00;;;;;;5023349;28;19917;-78
2023/01/20 14:25:57;;;;;;;;;;;0.90;98.40;;;;;;5036834;28;19922;-78
2023/01/20 14:28:23;;;;;;;;;;;0.80;98.70;;;;;;5022362;28;19929;-78
2023/01/20 14:30:48;;;;;;;;;;;0.80;99.30;;;;;;5023565;28;19916;-78
2023/01/20 14:33:15;;;;;;;;;;;0.90;99.70;;;;;;5021543;28;19918;-79
2023/01/20 14:35:40;;;;;;;;;;;0.90;99.80;;;;;;5021284;28;19910;-80
2023/01/20 14:38:15;;;;;;;;;;;0.90;99.80;;;;;;5022739;28;19917;-80
2023/01/20 14:40:41;;;;;;;;;;;0.90;99.30;;;;;;5003113;28;19914;-80
2023/01/20 14:43:14;;;;;;;;;;;1.00;99.00;;;;;;5002330;28;19918;-79
2023/01/20 14:45:42;;;;;;;;;;;0.90;99.40;;;;;;5023558;28;19922;-79